sensor_id;sensor_type;location;lat;lon;timestamp;temperature;humidity
11838;DHT22;5978;51.020;6.764;2023-04-06T00:01:40;4.10;99.90
11838;DHT22;5978;51.020;6.764;2023-04-06T00:04:06;4.10;99.90
11838;DHT22;5978;51.020;6.764;2023-04-06T00:06:32;4.10;99.90
11838;DHT22;5978;51.020;6.764;2023-04-06T00:08:59;4.20;99.90
11838;DHT22;5978;51.020;6.764;2023-04-06T00:11:25;4.10;99.90
11838;DHT22;5978;51.020;6.764;2023-04-06T00:13:51;4.10;99.90
11838;DHT22;5978;51.020;6.764;2023-04-06T00:16:17;4.00;99.90
11838;DHT22;5978;51.020;6.764;2023-04-06T00:18:43;4.00;99.90
11838;DHT22;5978;51.020;6.764;2023-04-06T00:21:11;4.00;99.90
11838;DHT22;5978;51.020;6.764;2023-04-06T00:23:39;3.90;99.90
11838;DHT22;5978;51.020;6.764;2023-04-06T00:26:05;3.90;99.90
11838;DHT22;5978;51.020;6.764;2023-04-06T00:28:30;3.90;99.90
11838;DHT22;5978;51.020;6.764;2023-04-06T00:30:56;3.80;99.90
11838;DHT22;5978;51.020;6.764;2023-04-06T00:33:22;3.80;99.90
11838;DHT22;5978;51.020;6.764;2023-04-06T00:35:49;3.90;99.90
11838;DHT22;5978;51.020;6.764;2023-04-06T00:38:15;3.90;99.90
11838;DHT22;5978;51.020;6.764;2023-04-06T00:40:42;3.80;99.90
11838;DHT22;5978;51.020;6.764;2023-04-06T00:43:10;3.80;99.90
11838;DHT22;5978;51.020;6.764;2023-04-06T00:45:38;3.90;99.90
11838;DHT22;5978;51.020;6.764;2023-04-06T00:48:04;3.80;99.90
11838;DHT22;5978;51.020;6.764;2023-04-06T00:50:30;3.80;99.90
11838;DHT22;5978;51.020;6.764;2023-04-06T00:52:56;3.80;99.90
11838;DHT22;5978;51.020;6.764;2023-04-06T00:55:22;3.80;99.90
11838;DHT22;5978;51.020;6.764;2023-04-06T00:57:48;3.80;99.90
11838;DHT22;5978;51.020;6.764;2023-04-06T01:00:16;3.80;99.90
11838;DHT22;5978;51.020;6.764;2023-04-06T01:02:42;3.80;99.90
11838;DHT22;5978;51.020;6.764;2023-04-06T01:05:08;3.80;99.90
11838;DHT22;5978;51.020;6.764;2023-04-06T01:07:34;3.70;99.90
11838;DHT22;5978;51.020;6.764;2023-04-06T01:10:00;3.70;99.90
11838;DHT22;5978;51.020;6.764;2023-04-06T01:12:26;3.70;99.90
11838;DHT22;5978;51.020;6.764;2023-04-06T01:14:52;3.70;99.90
11838;DHT22;5978;51.020;6.764;2023-04-06T01:17:18;3.80;99.90
11838;DHT22;5978;51.020;6.764;2023-04-06T01:19:44;3.70;99.90
11838;DHT22;5978;51.020;6.764;2023-04-06T01:22:17;3.70;99.90
11838;DHT22;5978;51.020;6.764;2023-04-06T01:24:43;3.60;99.90
11838;DHT22;5978;51.020;6.764;2023-04-06T01:27:09;3.60;99.90
11838;DHT22;5978;51.020;6.764;2023-04-06T01:29:35;3.50;99.90
11838;DHT22;5978;51.020;6.764;2023-04-06T01:32:01;3.40;99.90
11838;DHT22;5978;51.020;6.764;2023-04-06T01:34:27;3.30;99.90
11838;DHT22;5978;51.020;6.764;2023-04-06T01:36:52;3.30;99.90
11838;DHT22;5978;51.020;6.764;2023-04-06T01:39:19;3.30;99.90
11838;DHT22;5978;51.020;6.764;2023-04-06T01:41:45;3.20;99.90
11838;DHT22;5978;51.020;6.764;2023-04-06T01:44:16;3.20;99.90
11838;DHT22;5978;51.020;6.764;2023-04-06T01:46:42;3.30;99.90
11838;DHT22;5978;51.020;6.764;2023-04-06T01:49:07;3.20;99.90
11838;DHT22;5978;51.020;6.764;2023-04-06T01:51:33;3.20;99.90
11838;DHT22;5978;51.020;6.764;2023-04-06T01:53:59;3.20;99.90
11838;DHT22;5978;51.020;6.764;2023-04-06T01:56:25;3.30;99.90
11838;DHT22;5978;51.020;6.764;2023-04-06T01:58:51;3.30;99.90
11838;DHT22;5978;51.020;6.764;2023-04-06T02:01:18;3.30;99.90
11838;DHT22;5978;51.020;6.764;2023-04-06T02:03:43;3.30;99.90
11838;DHT22;5978;51.020;6.764;2023-04-06T02:06:09;3.40;99.90
11838;DHT22;5978;51.020;6.764;2023-04-06T02:08:35;3.40;99.90
11838;DHT22;5978;51.020;6.764;2023-04-06T02:11:01;3.30;99.90
11838;DHT22;5978;51.020;6.764;2023-04-06T02:13:27;3.40;99.90
11838;DHT22;5978;51.020;6.764;2023-04-06T02:15:53;3.40;99.90
11838;DHT22;5978;51.020;6.764;2023-04-06T02:18:18;3.40;99.90
11838;DHT22;5978;51.020;6.764;2023-04-06T02:20:45;3.20;99.90
11838;DHT22;5978;51.020;6.764;2023-04-06T02:23:11;3.10;99.90
11838;DHT22;5978;51.020;6.764;2023-04-06T02:25:37;3.10;99.90
11838;DHT22;5978;51.020;6.764;2023-04-06T02:28:03;3.10;99.90
11838;DHT22;5978;51.020;6.764;2023-04-06T02:30:29;3.00;99.90
11838;DHT22;5978;51.020;6.764;2023-04-06T02:32:55;3.00;99.90
11838;DHT22;5978;51.020;6.764;2023-04-06T02:35:21;3.00;99.90
11838;DHT22;5978;51.020;6.764;2023-04-06T02:37:47;3.10;99.90
11838;DHT22;5978;51.020;6.764;2023-04-06T02:40:14;3.10;99.90
11838;DHT22;5978;51.020;6.764;2023-04-06T02:42:39;3.20;99.90
11838;DHT22;5978;51.020;6.764;2023-04-06T02:45:06;3.10;99.90
11838;DHT22;5978;51.020;6.764;2023-04-06T02:47:33;3.10;99.90
11838;DHT22;5978;51.020;6.764;2023-04-06T02:49:59;3.10;99.90
11838;DHT22;5978;51.020;6.764;2023-04-06T02:52:26;3.10;99.90
11838;DHT22;5978;51.020;6.764;2023-04-06T02:54:52;3.00;99.90
11838;DHT22;5978;51.020;6.764;2023-04-06T02:57:17;3.00;99.90
11838;DHT22;5978;51.020;6.764;2023-04-06T02:59:43;3.00;99.90
11838;DHT22;5978;51.020;6.764;2023-04-06T03:02:08;3.00;99.90
11838;DHT22;5978;51.020;6.764;2023-04-06T03:04:34;3.00;99.90
11838;DHT22;5978;51.020;6.764;2023-04-06T03:07:00;3.00;99.90
11838;DHT22;5978;51.020;6.764;2023-04-06T03:09:26;3.00;99.90
11838;DHT22;5978;51.020;6.764;2023-04-06T03:11:52;2.90;99.90
11838;DHT22;5978;51.020;6.764;2023-04-06T03:14:18;3.00;99.90
11838;DHT22;5978;51.020;6.764;2023-04-06T03:16:47;3.00;99.90
11838;DHT22;5978;51.020;6.764;2023-04-06T03:19:13;3.00;99.90
11838;DHT22;5978;51.020;6.764;2023-04-06T03:21:39;2.90;99.90
11838;DHT22;5978;51.020;6.764;2023-04-06T03:24:05;2.90;99.90
11838;DHT22;5978;51.020;6.764;2023-04-06T03:26:31;2.80;99.90
11838;DHT22;5978;51.020;6.764;2023-04-06T03:28:57;2.90;99.90
11838;DHT22;5978;51.020;6.764;2023-04-06T03:31:23;2.90;99.90
11838;DHT22;5978;51.020;6.764;2023-04-06T03:33:48;2.80;99.90
11838;DHT22;5978;51.020;6.764;2023-04-06T03:36:14;2.90;99.90
11838;DHT22;5978;51.020;6.764;2023-04-06T03:38:40;2.90;99.90
11838;DHT22;5978;51.020;6.764;2023-04-06T03:41:06;2.80;99.90
11838;DHT22;5978;51.020;6.764;2023-04-06T03:43:31;2.80;99.90
11838;DHT22;5978;51.020;6.764;2023-04-06T03:45:57;2.80;99.90
11838;DHT22;5978;51.020;6.764;2023-04-06T03:48:23;2.80;99.90
11838;DHT22;5978;51.020;6.764;2023-04-06T03:50:49;2.80;99.90
11838;DHT22;5978;51.020;6.764;2023-04-06T03:53:14;2.80;99.90
11838;DHT22;5978;51.020;6.764;2023-04-06T03:55:40;2.80;99.90
11838;DHT22;5978;51.020;6.764;2023-04-06T03:58:06;2.70;99.90
11838;DHT22;5978;51.020;6.764;2023-04-06T04:00:32;2.70;99.90
11838;DHT22;5978;51.020;6.764;2023-04-06T04:02:58;2.70;99.90
11838;DHT22;5978;51.020;6.764;2023-04-06T04:05:24;2.70;99.90
11838;DHT22;5978;51.020;6.764;2023-04-06T04:07:51;2.70;99.90
11838;DHT22;5978;51.020;6.764;2023-04-06T04:10:17;2.60;99.90
11838;DHT22;5978;51.020;6.764;2023-04-06T04:12:43;2.60;99.90
11838;DHT22;5978;51.020;6.764;2023-04-06T04:15:09;2.50;99.90
11838;DHT22;5978;51.020;6.764;2023-04-06T04:17:35;2.50;99.90
11838;DHT22;5978;51.020;6.764;2023-04-06T04:20:01;2.50;99.90
11838;DHT22;5978;51.020;6.764;2023-04-06T04:22:27;2.60;99.90
11838;DHT22;5978;51.020;6.764;2023-04-06T04:24:53;2.50;99.90
11838;DHT22;5978;51.020;6.764;2023-04-06T04:27:19;2.50;99.90
11838;DHT22;5978;51.020;6.764;2023-04-06T04:29:46;2.50;99.90
11838;DHT22;5978;51.020;6.764;2023-04-06T04:32:11;2.50;99.90
11838;DHT22;5978;51.020;6.764;2023-04-06T04:34:37;2.50;99.90
11838;DHT22;5978;51.020;6.764;2023-04-06T04:37:06;2.50;99.90
11838;DHT22;5978;51.020;6.764;2023-04-06T04:39:32;2.50;99.90
11838;DHT22;5978;51.020;6.764;2023-04-06T04:41:58;2.50;99.90
11838;DHT22;5978;51.020;6.764;2023-04-06T04:44:24;2.50;99.90
11838;DHT22;5978;51.020;6.764;2023-04-06T04:46:50;2.40;99.90
11838;DHT22;5978;51.020;6.764;2023-04-06T04:49:15;2.40;99.90
11838;DHT22;5978;51.020;6.764;2023-04-06T04:51:41;2.40;99.90
11838;DHT22;5978;51.020;6.764;2023-04-06T04:54:07;2.40;99.90
11838;DHT22;5978;51.020;6.764;2023-04-06T04:56:33;2.30;99.90
11838;DHT22;5978;51.020;6.764;2023-04-06T04:58:58;2.30;99.90
11838;DHT22;5978;51.020;6.764;2023-04-06T05:01:24;2.30;99.90
11838;DHT22;5978;51.020;6.764;2023-04-06T05:03:50;2.30;99.90
11838;DHT22;5978;51.020;6.764;2023-04-06T05:06:16;2.30;99.90
11838;DHT22;5978;51.020;6.764;2023-04-06T05:08:42;2.20;99.90
11838;DHT22;5978;51.020;6.764;2023-04-06T05:11:09;2.30;99.90
11838;DHT22;5978;51.020;6.764;2023-04-06T05:13:35;2.30;99.90
11838;DHT22;5978;51.020;6.764;2023-04-06T05:16:01;2.40;99.90
11838;DHT22;5978;51.020;6.764;2023-04-06T05:18:27;2.40;99.90
11838;DHT22;5978;51.020;6.764;2023-04-06T05:20:52;2.40;99.90
11838;DHT22;5978;51.020;6.764;2023-04-06T05:23:18;2.50;99.90
11838;DHT22;5978;51.020;6.764;2023-04-06T05:25:44;2.50;99.90
11838;DHT22;5978;51.020;6.764;2023-04-06T05:28:09;2.60;99.90
11838;DHT22;5978;51.020;6.764;2023-04-06T05:30:35;2.60;99.90
11838;DHT22;5978;51.020;6.764;2023-04-06T05:33:01;2.60;99.90
11838;DHT22;5978;51.020;6.764;2023-04-06T05:35:27;2.80;99.90
11838;DHT22;5978;51.020;6.764;2023-04-06T05:37:53;2.90;99.90
11838;DHT22;5978;51.020;6.764;2023-04-06T05:40:19;3.10;99.90
11838;DHT22;5978;51.020;6.764;2023-04-06T05:42:44;3.10;99.90
11838;DHT22;5978;51.020;6.764;2023-04-06T05:45:11;3.10;99.90
11838;DHT22;5978;51.020;6.764;2023-04-06T05:47:42;3.00;99.90
11838;DHT22;5978;51.020;6.764;2023-04-06T05:50:10;3.00;99.90
11838;DHT22;5978;51.020;6.764;2023-04-06T05:52:35;3.00;99.90
11838;DHT22;5978;51.020;6.764;2023-04-06T05:55:02;3.00;99.90
11838;DHT22;5978;51.020;6.764;2023-04-06T05:57:28;3.00;99.90
11838;DHT22;5978;51.020;6.764;2023-04-06T05:59:53;2.90;99.90
11838;DHT22;5978;51.020;6.764;2023-04-06T06:02:20;2.90;99.90
11838;DHT22;5978;51.020;6.764;2023-04-06T06:04:47;3.00;99.90
11838;DHT22;5978;51.020;6.764;2023-04-06T06:07:14;3.00;99.90
11838;DHT22;5978;51.020;6.764;2023-04-06T06:09:40;3.10;99.90
11838;DHT22;5978;51.020;6.764;2023-04-06T06:12:06;3.30;99.90
11838;DHT22;5978;51.020;6.764;2023-04-06T06:14:31;3.40;99.90
11838;DHT22;5978;51.020;6.764;2023-04-06T06:16:57;3.50;99.90
11838;DHT22;5978;51.020;6.764;2023-04-06T06:19:23;3.60;99.90
11838;DHT22;5978;51.020;6.764;2023-04-06T06:21:49;3.70;99.90
11838;DHT22;5978;51.020;6.764;2023-04-06T06:24:14;3.80;99.90
11838;DHT22;5978;51.020;6.764;2023-04-06T06:26:40;3.90;99.90
11838;DHT22;5978;51.020;6.764;2023-04-06T06:29:06;4.00;99.90
11838;DHT22;5978;51.020;6.764;2023-04-06T06:31:32;4.00;99.90
11838;DHT22;5978;51.020;6.764;2023-04-06T06:33:58;4.20;99.90
11838;DHT22;5978;51.020;6.764;2023-04-06T06:36:25;4.30;99.90
11838;DHT22;5978;51.020;6.764;2023-04-06T06:38:51;4.50;99.90
11838;DHT22;5978;51.020;6.764;2023-04-06T06:41:17;4.70;99.90
11838;DHT22;5978;51.020;6.764;2023-04-06T06:43:43;4.90;99.90
11838;DHT22;5978;51.020;6.764;2023-04-06T06:46:08;5.10;99.90
11838;DHT22;5978;51.020;6.764;2023-04-06T06:48:34;5.20;99.90
11838;DHT22;5978;51.020;6.764;2023-04-06T06:51:00;5.40;99.90
11838;DHT22;5978;51.020;6.764;2023-04-06T06:53:26;5.60;99.90
11838;DHT22;5978;51.020;6.764;2023-04-06T06:55:52;5.80;99.90
11838;DHT22;5978;51.020;6.764;2023-04-06T06:58:18;5.90;99.90
11838;DHT22;5978;51.020;6.764;2023-04-06T07:00:47;6.00;99.90
11838;DHT22;5978;51.020;6.764;2023-04-06T07:03:13;6.20;99.90
11838;DHT22;5978;51.020;6.764;2023-04-06T07:05:39;6.30;99.90
11838;DHT22;5978;51.020;6.764;2023-04-06T07:08:10;6.60;99.90
11838;DHT22;5978;51.020;6.764;2023-04-06T07:10:36;6.90;99.90
11838;DHT22;5978;51.020;6.764;2023-04-06T07:13:02;7.20;99.90
11838;DHT22;5978;51.020;6.764;2023-04-06T07:15:27;7.40;99.90
11838;DHT22;5978;51.020;6.764;2023-04-06T07:17:53;7.30;99.90
11838;DHT22;5978;51.020;6.764;2023-04-06T07:20:20;7.20;99.90
11838;DHT22;5978;51.020;6.764;2023-04-06T07:22:46;7.20;99.90
11838;DHT22;5978;51.020;6.764;2023-04-06T07:25:12;7.10;99.90
11838;DHT22;5978;51.020;6.764;2023-04-06T07:27:38;7.10;99.90
11838;DHT22;5978;51.020;6.764;2023-04-06T07:30:04;7.20;99.90
11838;DHT22;5978;51.020;6.764;2023-04-06T07:32:29;7.30;99.90
11838;DHT22;5978;51.020;6.764;2023-04-06T07:34:56;7.20;99.90
11838;DHT22;5978;51.020;6.764;2023-04-06T07:37:22;7.40;99.90
11838;DHT22;5978;51.020;6.764;2023-04-06T07:39:48;7.50;99.90
11838;DHT22;5978;51.020;6.764;2023-04-06T07:42:13;7.60;99.90
11838;DHT22;5978;51.020;6.764;2023-04-06T07:44:39;7.60;99.90
11838;DHT22;5978;51.020;6.764;2023-04-06T07:47:05;7.60;99.90
11838;DHT22;5978;51.020;6.764;2023-04-06T07:49:31;7.60;99.90
11838;DHT22;5978;51.020;6.764;2023-04-06T07:51:58;7.70;99.90
11838;DHT22;5978;51.020;6.764;2023-04-06T07:54:24;7.80;99.90
11838;DHT22;5978;51.020;6.764;2023-04-06T07:56:49;8.20;99.90
11838;DHT22;5978;51.020;6.764;2023-04-06T07:59:15;8.50;99.90
11838;DHT22;5978;51.020;6.764;2023-04-06T08:01:41;8.70;99.90
11838;DHT22;5978;51.020;6.764;2023-04-06T08:04:07;8.70;99.90
11838;DHT22;5978;51.020;6.764;2023-04-06T08:06:33;8.80;99.90
11838;DHT22;5978;51.020;6.764;2023-04-06T08:08:59;8.90;99.90
11838;DHT22;5978;51.020;6.764;2023-04-06T08:11:25;9.10;99.90
11838;DHT22;5978;51.020;6.764;2023-04-06T08:13:52;9.20;99.90
11838;DHT22;5978;51.020;6.764;2023-04-06T08:16:18;9.40;99.90
11838;DHT22;5978;51.020;6.764;2023-04-06T08:18:44;9.60;99.90
11838;DHT22;5978;51.020;6.764;2023-04-06T08:21:10;9.60;99.90
11838;DHT22;5978;51.020;6.764;2023-04-06T08:23:36;9.70;99.90
11838;DHT22;5978;51.020;6.764;2023-04-06T08:26:02;9.80;99.90
11838;DHT22;5978;51.020;6.764;2023-04-06T08:28:28;10.00;99.90
11838;DHT22;5978;51.020;6.764;2023-04-06T08:30:54;10.30;99.90
11838;DHT22;5978;51.020;6.764;2023-04-06T08:33:19;10.60;99.90
11838;DHT22;5978;51.020;6.764;2023-04-06T08:35:45;10.70;99.90
11838;DHT22;5978;51.020;6.764;2023-04-06T08:38:11;11.00;99.90
11838;DHT22;5978;51.020;6.764;2023-04-06T08:40:40;11.20;99.90
11838;DHT22;5978;51.020;6.764;2023-04-06T08:43:13;11.10;99.90
11838;DHT22;5978;51.020;6.764;2023-04-06T08:45:41;11.20;99.90
11838;DHT22;5978;51.020;6.764;2023-04-06T08:48:08;11.10;99.90
11838;DHT22;5978;51.020;6.764;2023-04-06T08:50:35;11.10;99.90
11838;DHT22;5978;51.020;6.764;2023-04-06T08:53:01;11.30;99.90
11838;DHT22;5978;51.020;6.764;2023-04-06T08:55:27;11.30;99.90
11838;DHT22;5978;51.020;6.764;2023-04-06T08:57:53;11.50;99.90
11838;DHT22;5978;51.020;6.764;2023-04-06T09:00:21;11.80;99.90
11838;DHT22;5978;51.020;6.764;2023-04-06T09:02:47;11.70;99.50
11838;DHT22;5978;51.020;6.764;2023-04-06T09:05:15;11.70;99.30
11838;DHT22;5978;51.020;6.764;2023-04-06T09:07:41;11.80;99.30
11838;DHT22;5978;51.020;6.764;2023-04-06T09:10:08;12.00;99.80
11838;DHT22;5978;51.020;6.764;2023-04-06T09:12:34;11.90;98.90
11838;DHT22;5978;51.020;6.764;2023-04-06T09:15:01;11.90;99.60
11838;DHT22;5978;51.020;6.764;2023-04-06T09:17:31;12.10;99.10
11838;DHT22;5978;51.020;6.764;2023-04-06T09:20:02;12.40;98.60
11838;DHT22;5978;51.020;6.764;2023-04-06T09:22:38;12.70;98.90
11838;DHT22;5978;51.020;6.764;2023-04-06T09:25:05;12.70;97.00
11838;DHT22;5978;51.020;6.764;2023-04-06T09:27:33;12.60;96.70
11838;DHT22;5978;51.020;6.764;2023-04-06T09:30:10;12.70;96.80
11838;DHT22;5978;51.020;6.764;2023-04-06T09:32:50;12.60;96.70
11838;DHT22;5978;51.020;6.764;2023-04-06T09:35:16;12.60;97.40
11838;DHT22;5978;51.020;6.764;2023-04-06T09:37:43;12.80;96.70
11838;DHT22;5978;51.020;6.764;2023-04-06T09:40:09;12.90;97.10
11838;DHT22;5978;51.020;6.764;2023-04-06T09:42:36;13.10;97.50
11838;DHT22;5978;51.020;6.764;2023-04-06T09:45:02;13.30;96.80
11838;DHT22;5978;51.020;6.764;2023-04-06T09:47:30;13.50;96.40
11838;DHT22;5978;51.020;6.764;2023-04-06T09:49:58;13.60;96.90
11838;DHT22;5978;51.020;6.764;2023-04-06T09:52:30;13.80;97.10
11838;DHT22;5978;51.020;6.764;2023-04-06T09:55:01;14.00;96.00
11838;DHT22;5978;51.020;6.764;2023-04-06T10:00:17;14.50;94.70
11838;DHT22;5978;51.020;6.764;2023-04-06T10:05:33;14.40;92.30
11838;DHT22;5978;51.020;6.764;2023-04-06T10:08:09;14.40;92.70
11838;DHT22;5978;51.020;6.764;2023-04-06T10:10:35;14.40;92.20
11838;DHT22;5978;51.020;6.764;2023-04-06T10:13:01;14.60;92.30
11838;DHT22;5978;51.020;6.764;2023-04-06T10:15:29;14.40;91.80
11838;DHT22;5978;51.020;6.764;2023-04-06T10:18:01;14.40;92.40
11838;DHT22;5978;51.020;6.764;2023-04-06T10:20:41;14.50;91.90
11838;DHT22;5978;51.020;6.764;2023-04-06T10:23:09;14.60;92.20
11838;DHT22;5978;51.020;6.764;2023-04-06T10:25:39;14.80;91.20
11838;DHT22;5978;51.020;6.764;2023-04-06T10:28:07;14.90;88.70
11838;DHT22;5978;51.020;6.764;2023-04-06T10:30:34;14.90;90.20
11838;DHT22;5978;51.020;6.764;2023-04-06T10:33:01;14.90;89.00
11838;DHT22;5978;51.020;6.764;2023-04-06T10:35:37;14.70;86.30
11838;DHT22;5978;51.020;6.764;2023-04-06T10:38:04;14.90;86.40
11838;DHT22;5978;51.020;6.764;2023-04-06T10:40:31;15.00;87.00
11838;DHT22;5978;51.020;6.764;2023-04-06T10:43:10;14.90;86.50
11838;DHT22;5978;51.020;6.764;2023-04-06T10:45:37;15.00;85.40
11838;DHT22;5978;51.020;6.764;2023-04-06T10:48:15;15.10;87.10
11838;DHT22;5978;51.020;6.764;2023-04-06T10:50:44;15.00;86.10
11838;DHT22;5978;51.020;6.764;2023-04-06T10:53:11;14.90;85.00
11838;DHT22;5978;51.020;6.764;2023-04-06T10:55:39;15.20;85.30
11838;DHT22;5978;51.020;6.764;2023-04-06T10:58:07;15.00;86.20
11838;DHT22;5978;51.020;6.764;2023-04-06T11:00:33;15.10;86.60
11838;DHT22;5978;51.020;6.764;2023-04-06T11:02:59;15.30;87.70
11838;DHT22;5978;51.020;6.764;2023-04-06T11:05:26;15.60;82.80
11838;DHT22;5978;51.020;6.764;2023-04-06T11:07:52;15.70;80.60
11838;DHT22;5978;51.020;6.764;2023-04-06T11:10:22;15.70;79.80
11838;DHT22;5978;51.020;6.764;2023-04-06T11:12:56;15.90;81.20
11838;DHT22;5978;51.020;6.764;2023-04-06T11:15:22;16.20;81.70
11838;DHT22;5978;51.020;6.764;2023-04-06T11:17:48;16.40;83.30
11838;DHT22;5978;51.020;6.764;2023-04-06T11:20:15;16.50;82.20
11838;DHT22;5978;51.020;6.764;2023-04-06T11:22:50;16.40;81.00
11838;DHT22;5978;51.020;6.764;2023-04-06T11:25:17;16.00;75.80
11838;DHT22;5978;51.020;6.764;2023-04-06T11:27:43;15.90;77.60
11838;DHT22;5978;51.020;6.764;2023-04-06T11:30:10;15.80;78.20
11838;DHT22;5978;51.020;6.764;2023-04-06T11:32:42;16.10;77.70
11838;DHT22;5978;51.020;6.764;2023-04-06T11:35:20;16.00;76.60
11838;DHT22;5978;51.020;6.764;2023-04-06T11:37:45;15.60;75.50
11838;DHT22;5978;51.020;6.764;2023-04-06T11:40:11;15.80;75.70
11838;DHT22;5978;51.020;6.764;2023-04-06T11:42:37;16.40;78.40
11838;DHT22;5978;51.020;6.764;2023-04-06T11:45:03;16.70;71.60
11838;DHT22;5978;51.020;6.764;2023-04-06T11:47:33;17.40;73.20
11838;DHT22;5978;51.020;6.764;2023-04-06T11:50:10;17.30;70.20
11838;DHT22;5978;51.020;6.764;2023-04-06T11:52:36;17.20;69.00
11838;DHT22;5978;51.020;6.764;2023-04-06T11:55:14;16.60;67.90
11838;DHT22;5978;51.020;6.764;2023-04-06T11:57:41;16.40;67.90
11838;DHT22;5978;51.020;6.764;2023-04-06T12:00:10;16.40;68.50
11838;DHT22;5978;51.020;6.764;2023-04-06T12:02:37;16.50;66.10
11838;DHT22;5978;51.020;6.764;2023-04-06T12:05:04;16.40;66.60
11838;DHT22;5978;51.020;6.764;2023-04-06T12:07:30;16.10;66.50
11838;DHT22;5978;51.020;6.764;2023-04-06T12:09:56;15.90;67.80
11838;DHT22;5978;51.020;6.764;2023-04-06T12:12:22;15.90;68.80
11838;DHT22;5978;51.020;6.764;2023-04-06T12:14:48;15.90;71.40
11838;DHT22;5978;51.020;6.764;2023-04-06T12:17:14;16.00;74.30
11838;DHT22;5978;51.020;6.764;2023-04-06T12:19:40;16.10;73.70
11838;DHT22;5978;51.020;6.764;2023-04-06T12:22:06;16.00;69.10
11838;DHT22;5978;51.020;6.764;2023-04-06T12:24:31;15.70;71.40
11838;DHT22;5978;51.020;6.764;2023-04-06T12:26:57;15.50;74.20
11838;DHT22;5978;51.020;6.764;2023-04-06T12:29:24;15.60;78.60
11838;DHT22;5978;51.020;6.764;2023-04-06T12:31:51;15.80;76.40
11838;DHT22;5978;51.020;6.764;2023-04-06T12:34:17;16.00;77.10
11838;DHT22;5978;51.020;6.764;2023-04-06T12:36:43;15.90;75.70
11838;DHT22;5978;51.020;6.764;2023-04-06T12:39:09;15.70;76.20
11838;DHT22;5978;51.020;6.764;2023-04-06T12:41:35;15.50;77.60
11838;DHT22;5978;51.020;6.764;2023-04-06T12:44:01;15.30;80.70
11838;DHT22;5978;51.020;6.764;2023-04-06T12:46:27;15.30;79.00
11838;DHT22;5978;51.020;6.764;2023-04-06T12:48:55;15.30;76.40
11838;DHT22;5978;51.020;6.764;2023-04-06T12:51:22;15.60;76.30
11838;DHT22;5978;51.020;6.764;2023-04-06T12:53:48;15.50;77.20
11838;DHT22;5978;51.020;6.764;2023-04-06T12:56:16;15.10;78.50
11838;DHT22;5978;51.020;6.764;2023-04-06T12:58:43;14.60;79.20
11838;DHT22;5978;51.020;6.764;2023-04-06T13:01:09;14.40;81.80
11838;DHT22;5978;51.020;6.764;2023-04-06T13:03:36;14.30;85.10
11838;DHT22;5978;51.020;6.764;2023-04-06T13:06:02;14.30;87.20
11838;DHT22;5978;51.020;6.764;2023-04-06T13:08:28;14.20;90.20
11838;DHT22;5978;51.020;6.764;2023-04-06T13:10:54;14.10;91.10
11838;DHT22;5978;51.020;6.764;2023-04-06T13:13:22;14.10;91.90
11838;DHT22;5978;51.020;6.764;2023-04-06T13:15:48;14.10;91.40
11838;DHT22;5978;51.020;6.764;2023-04-06T13:18:14;13.90;91.10
11838;DHT22;5978;51.020;6.764;2023-04-06T13:20:41;13.80;91.70
11838;DHT22;5978;51.020;6.764;2023-04-06T13:23:08;13.60;92.30
11838;DHT22;5978;51.020;6.764;2023-04-06T13:25:34;13.50;93.00
11838;DHT22;5978;51.020;6.764;2023-04-06T13:28:00;13.50;94.50
11838;DHT22;5978;51.020;6.764;2023-04-06T13:30:26;13.50;95.40
11838;DHT22;5978;51.020;6.764;2023-04-06T13:32:52;13.60;96.50
11838;DHT22;5978;51.020;6.764;2023-04-06T13:35:18;13.50;94.90
11838;DHT22;5978;51.020;6.764;2023-04-06T13:37:44;13.50;94.20
11838;DHT22;5978;51.020;6.764;2023-04-06T13:40:10;13.50;93.80
11838;DHT22;5978;51.020;6.764;2023-04-06T13:42:36;13.60;94.00
11838;DHT22;5978;51.020;6.764;2023-04-06T13:45:05;14.00;93.20
11838;DHT22;5978;51.020;6.764;2023-04-06T13:47:31;14.00;92.50
11838;DHT22;5978;51.020;6.764;2023-04-06T13:49:57;14.50;92.40
11838;DHT22;5978;51.020;6.764;2023-04-06T13:52:22;14.70;91.30
11838;DHT22;5978;51.020;6.764;2023-04-06T13:54:49;14.60;91.40
11838;DHT22;5978;51.020;6.764;2023-04-06T13:57:14;14.20;92.80
11838;DHT22;5978;51.020;6.764;2023-04-06T13:59:40;13.90;95.50
11838;DHT22;5978;51.020;6.764;2023-04-06T14:02:08;13.60;96.20
11838;DHT22;5978;51.020;6.764;2023-04-06T14:04:34;13.40;98.00
11838;DHT22;5978;51.020;6.764;2023-04-06T14:07:01;13.00;99.90
11838;DHT22;5978;51.020;6.764;2023-04-06T14:09:27;12.80;99.90
11838;DHT22;5978;51.020;6.764;2023-04-06T14:11:54;12.40;99.90
11838;DHT22;5978;51.020;6.764;2023-04-06T14:14:20;12.20;99.90
11838;DHT22;5978;51.020;6.764;2023-04-06T14:16:46;12.00;99.90
11838;DHT22;5978;51.020;6.764;2023-04-06T14:19:14;11.70;99.90
11838;DHT22;5978;51.020;6.764;2023-04-06T14:21:41;11.30;99.90
11838;DHT22;5978;51.020;6.764;2023-04-06T14:24:08;11.00;99.90
11838;DHT22;5978;51.020;6.764;2023-04-06T14:26:38;10.70;99.90
11838;DHT22;5978;51.020;6.764;2023-04-06T14:29:04;10.50;99.90
11838;DHT22;5978;51.020;6.764;2023-04-06T14:31:31;10.30;99.90
11838;DHT22;5978;51.020;6.764;2023-04-06T14:33:57;10.20;99.90
11838;DHT22;5978;51.020;6.764;2023-04-06T14:36:24;10.00;99.90
11838;DHT22;5978;51.020;6.764;2023-04-06T14:38:52;9.90;99.90
11838;DHT22;5978;51.020;6.764;2023-04-06T14:41:22;9.80;99.90
11838;DHT22;5978;51.020;6.764;2023-04-06T14:43:48;9.70;99.90
11838;DHT22;5978;51.020;6.764;2023-04-06T14:46:15;9.70;99.90
11838;DHT22;5978;51.020;6.764;2023-04-06T14:48:44;9.70;99.90
11838;DHT22;5978;51.020;6.764;2023-04-06T14:51:10;9.60;99.90
11838;DHT22;5978;51.020;6.764;2023-04-06T14:53:37;9.60;99.90
11838;DHT22;5978;51.020;6.764;2023-04-06T14:56:03;9.70;99.90
11838;DHT22;5978;51.020;6.764;2023-04-06T14:58:29;9.70;99.90
11838;DHT22;5978;51.020;6.764;2023-04-06T15:00:59;9.70;99.90
11838;DHT22;5978;51.020;6.764;2023-04-06T15:03:28;9.70;99.90
11838;DHT22;5978;51.020;6.764;2023-04-06T15:05:55;9.70;99.90
11838;DHT22;5978;51.020;6.764;2023-04-06T15:08:22;9.60;99.90
11838;DHT22;5978;51.020;6.764;2023-04-06T15:10:51;9.50;99.90
11838;DHT22;5978;51.020;6.764;2023-04-06T15:13:17;9.50;99.90
11838;DHT22;5978;51.020;6.764;2023-04-06T15:15:44;9.40;99.90
11838;DHT22;5978;51.020;6.764;2023-04-06T15:18:10;9.50;99.90
11838;DHT22;5978;51.020;6.764;2023-04-06T15:20:36;9.50;99.90
11838;DHT22;5978;51.020;6.764;2023-04-06T15:23:03;9.50;99.90
11838;DHT22;5978;51.020;6.764;2023-04-06T15:25:29;9.50;99.90
11838;DHT22;5978;51.020;6.764;2023-04-06T15:27:55;9.40;99.90
11838;DHT22;5978;51.020;6.764;2023-04-06T15:30:21;9.40;99.90
11838;DHT22;5978;51.020;6.764;2023-04-06T15:32:53;9.40;99.90
11838;DHT22;5978;51.020;6.764;2023-04-06T15:35:20;9.30;99.90
11838;DHT22;5978;51.020;6.764;2023-04-06T15:37:46;9.20;99.90
11838;DHT22;5978;51.020;6.764;2023-04-06T15:40:12;9.30;99.90
11838;DHT22;5978;51.020;6.764;2023-04-06T15:42:39;9.20;99.90
11838;DHT22;5978;51.020;6.764;2023-04-06T15:45:06;9.10;99.90
11838;DHT22;5978;51.020;6.764;2023-04-06T15:47:32;9.20;99.90
11838;DHT22;5978;51.020;6.764;2023-04-06T15:49:58;9.20;99.90
11838;DHT22;5978;51.020;6.764;2023-04-06T15:52:23;9.10;99.90
11838;DHT22;5978;51.020;6.764;2023-04-06T15:54:49;9.10;99.90
11838;DHT22;5978;51.020;6.764;2023-04-06T15:57:15;9.00;99.90